createdAt,value
2017-05-19T00:00:18.047Z,16.56
2017-05-19T00:00:58.615Z,16.57
2017-05-19T00:01:39.179Z,16.53
2017-05-19T00:02:19.698Z,16.53
2017-05-19T00:03:00.305Z,16.57
2017-05-19T00:03:40.887Z,16.51
2017-05-19T00:04:21.488Z,16.51
2017-05-19T00:05:02.023Z,16.56
2017-05-19T00:05:42.635Z,16.47
2017-05-19T00:06:23.204Z,16.51
2017-05-19T00:07:03.755Z,16.53
2017-05-19T00:07:44.310Z,16.6
2017-05-19T00:08:24.867Z,16.56
2017-05-19T00:09:05.411Z,16.61
2017-05-19T00:09:46.083Z,16.57
2017-05-19T00:10:26.706Z,16.6
2017-05-19T00:11:07.263Z,16.6
2017-05-19T00:11:47.851Z,16.54
2017-05-19T00:12:28.370Z,16.6
2017-05-19T00:13:08.989Z,16.57
2017-05-19T00:13:49.568Z,16.54
2017-05-19T00:14:30.158Z,16.5
2017-05-19T00:15:10.690Z,16.53
2017-05-19T00:15:51.269Z,16.58
2017-05-19T00:16:31.874Z,16.53
2017-05-19T00:17:12.458Z,16.54
2017-05-19T00:17:52.984Z,16.54
2017-05-19T00:18:33.585Z,16.57
2017-05-19T00:19:14.168Z,16.56
2017-05-19T00:19:54.763Z,16.56
2017-05-19T00:20:35.296Z,16.51
2017-05-19T00:21:15.882Z,16.56
2017-05-19T00:21:56.489Z,16.54
2017-05-19T00:22:37.076Z,16.54
2017-05-19T00:23:17.603Z,16.65
2017-05-19T00:23:58.179Z,16.57
2017-05-19T00:24:38.789Z,16.58
2017-05-19T00:25:19.371Z,16.6
2017-05-19T00:25:59.946Z,16.64
2017-05-19T00:26:40.496Z,16.6
2017-05-19T00:27:21.040Z,16.56
2017-05-19T00:28:01.638Z,16.6
2017-05-19T00:28:42.258Z,16.64
2017-05-19T00:29:22.793Z,16.58
2017-05-19T00:30:03.356Z,16.58
2017-05-19T00:30:43.912Z,16.61
2017-05-19T00:31:25.486Z,16.58
2017-05-19T00:32:06.070Z,16.6
2017-05-19T00:32:46.667Z,16.61
2017-05-19T00:33:27.193Z,16.6
2017-05-19T00:34:07.792Z,16.6
2017-05-19T00:34:48.397Z,16.6
2017-05-19T00:35:28.969Z,16.57
2017-05-19T00:36:09.498Z,16.57
2017-05-19T00:36:50.097Z,16.6
2017-05-19T00:37:30.637Z,16.54
2017-05-19T00:38:11.311Z,16.53
2017-05-19T00:38:51.929Z,16.53
2017-05-19T00:39:32.493Z,16.53
2017-05-19T00:40:13.046Z,16.58
2017-05-19T00:40:53.598Z,16.57
2017-05-19T00:41:34.235Z,16.54
2017-05-19T00:42:14.849Z,16.61
2017-05-19T00:42:55.454Z,16.58
2017-05-19T00:43:35.999Z,16.58
2017-05-19T00:44:16.618Z,16.56
2017-05-19T00:44:57.293Z,16.54
2017-05-19T00:45:37.861Z,16.56
2017-05-19T00:46:18.367Z,16.58
2017-05-19T00:46:59.002Z,16.53
2017-05-19T00:47:39.608Z,16.58
2017-05-19T00:48:20.138Z,16.57
2017-05-19T00:49:00.723Z,16.6
2017-05-19T00:49:41.355Z,16.56
2017-05-19T00:50:21.871Z,16.61
2017-05-19T00:51:02.490Z,16.58
2017-05-19T00:51:43.114Z,16.61
2017-05-19T00:52:23.655Z,16.54
2017-05-19T00:53:04.267Z,16.54
2017-05-19T00:53:44.819Z,16.64
2017-05-19T00:54:25.413Z,16.61
2017-05-19T00:55:05.947Z,16.51
2017-05-19T00:55:46.525Z,16.53
2017-05-19T00:56:27.128Z,16.53
2017-05-19T00:57:07.672Z,16.47
2017-05-19T00:57:48.340Z,16.56
2017-05-19T00:58:28.972Z,16.51
2017-05-19T00:59:09.541Z,16.57
2017-05-19T00:59:50.118Z,16.54
2017-05-19T01:00:30.685Z,16.56
2017-05-19T01:01:11.270Z,16.56
2017-05-19T01:01:51.819Z,16.54
2017-05-19T01:02:32.350Z,16.51
2017-05-19T01:03:12.948Z,16.56
2017-05-19T01:03:53.526Z,16.57
2017-05-19T01:04:34.129Z,16.5
2017-05-19T01:05:14.668Z,16.46
2017-05-19T01:05:55.241Z,16.5
2017-05-19T01:06:35.838Z,16.43
2017-05-19T01:07:16.487Z,16.41
2017-05-19T01:07:57.039Z,16.35
2017-05-19T01:08:37.585Z,16.33
2017-05-19T01:09:18.146Z,16.41
2017-05-19T01:09:58.699Z,16.43
2017-05-19T01:10:39.248Z,16.43
2017-05-19T01:11:19.890Z,16.33
2017-05-19T01:12:00.499Z,16.26
2017-05-19T01:12:41.016Z,16.33
2017-05-19T01:13:21.616Z,16.32
2017-05-19T01:14:02.219Z,16.2
2017-05-19T01:14:42.795Z,16.33
2017-05-19T01:15:23.326Z,16.2
2017-05-19T01:16:03.914Z,16.2
2017-05-19T01:16:44.544Z,16.13
2017-05-19T01:17:25.178Z,16.2
2017-05-19T01:18:05.802Z,16.15
2017-05-19T01:18:47.382Z,16.15
2017-05-19T01:19:28.036Z,16.15
2017-05-19T01:20:09.608Z,16.13
2017-05-19T01:20:50.263Z,16.2
2017-05-19T01:21:30.819Z,16.21
2017-05-19T01:22:11.410Z,16.16
2017-05-19T01:22:51.928Z,16.1
2017-05-19T01:23:32.534Z,16.13
2017-05-19T01:24:13.127Z,16.17
2017-05-19T01:24:53.710Z,16.08
2017-05-19T01:25:34.259Z,16.15
2017-05-19T01:26:14.811Z,16.13
2017-05-19T01:26:55.422Z,16.04
2017-05-19T01:27:36.017Z,16.1
2017-05-19T01:28:16.553Z,16.16
2017-05-19T01:28:57.174Z,16.08
2017-05-19T01:29:37.833Z,16.09
2017-05-19T01:30:18.422Z,16.05
2017-05-19T01:30:58.996Z,16.04
2017-05-19T01:31:39.558Z,16.12
2017-05-19T01:32:20.106Z,16.09
2017-05-19T01:33:00.639Z,16.04
2017-05-19T01:33:41.211Z,16.08
2017-05-19T01:34:21.763Z,16.1
2017-05-19T01:35:02.402Z,16.09
2017-05-19T01:35:42.953Z,16.16
2017-05-19T01:36:23.606Z,16.15
2017-05-19T01:37:04.185Z,16.15
2017-05-19T01:37:44.809Z,16.16
2017-05-19T01:38:25.385Z,16.2
2017-05-19T01:39:05.903Z,16.16
2017-05-19T01:39:46.559Z,16.2
2017-05-19T01:40:27.128Z,16.16
2017-05-19T01:41:07.670Z,16.16
2017-05-19T01:41:48.317Z,16.29
2017-05-19T01:42:28.892Z,16.29
2017-05-19T01:43:09.554Z,16.29
2017-05-19T01:43:51.097Z,16.17
2017-05-19T01:44:31.673Z,16.32
2017-05-19T01:45:12.307Z,16.23
2017-05-19T01:45:52.851Z,16.23
2017-05-19T01:46:33.386Z,16.36
2017-05-19T01:47:14.957Z,16.26
2017-05-19T01:47:55.507Z,16.23
2017-05-19T01:48:36.113Z,16.33
2017-05-19T01:49:16.722Z,16.33
2017-05-19T01:49:57.237Z,16.36
2017-05-19T01:50:37.841Z,16.42
2017-05-19T01:51:18.481Z,16.39
2017-05-19T01:51:59.016Z,16.39
2017-05-19T01:52:39.627Z,16.39
2017-05-19T01:53:20.316Z,16.36
2017-05-19T01:54:00.866Z,16.41
2017-05-19T01:54:42.511Z,16.39
2017-05-19T01:55:23.105Z,16.39
2017-05-19T01:56:03.627Z,16.38
2017-05-19T01:56:44.204Z,16.39
2017-05-19T01:57:24.750Z,16.35
2017-05-19T01:58:05.307Z,16.29
2017-05-19T01:58:45.883Z,16.26
2017-05-19T01:59:26.504Z,16.17
2017-05-19T02:00:07.043Z,16.13
2017-05-19T02:00:48.656Z,16.16
2017-05-19T02:01:29.287Z,16.15
2017-05-19T02:02:09.793Z,16.1
2017-05-19T02:02:50.401Z,16.09
2017-05-19T02:03:31.000Z,16.08
2017-05-19T02:04:11.590Z,16.02
2017-05-19T02:04:52.129Z,16
2017-05-19T02:05:32.710Z,15.94
2017-05-19T02:06:13.299Z,15.92
2017-05-19T02:06:53.893Z,15.94
2017-05-19T02:07:34.412Z,15.97
2017-05-19T02:08:15.020Z,15.84
2017-05-19T02:08:55.624Z,15.88
2017-05-19T02:09:36.209Z,15.84
2017-05-19T02:10:16.720Z,15.91
2017-05-19T02:10:58.366Z,15.75
2017-05-19T02:11:39.047Z,15.83
2017-05-19T02:12:19.684Z,15.86
2017-05-19T02:13:00.237Z,15.83
2017-05-19T02:13:40.789Z,15.76
2017-05-19T02:14:21.332Z,15.77
2017-05-19T02:15:01.889Z,15.7
2017-05-19T02:15:42.553Z,15.73
2017-05-19T02:16:23.201Z,15.67
2017-05-19T02:17:03.790Z,15.65
2017-05-19T02:17:44.414Z,15.65
2017-05-19T02:18:24.939Z,15.62
2017-05-19T02:19:05.606Z,15.57
2017-05-19T02:19:47.222Z,15.61
2017-05-19T02:20:27.759Z,15.55
2017-05-19T02:21:08.380Z,15.55
2017-05-19T02:21:48.964Z,15.59
2017-05-19T02:22:29.573Z,15.57
2017-05-19T02:23:10.088Z,15.51
2017-05-19T02:23:50.679Z,15.54
2017-05-19T02:24:31.277Z,15.51
2017-05-19T02:25:11.870Z,15.46
2017-05-19T02:25:52.378Z,15.52
2017-05-19T02:26:32.981Z,15.46
2017-05-19T02:27:13.586Z,15.42
2017-05-19T02:27:54.183Z,15.43
2017-05-19T02:28:34.705Z,15.54
2017-05-19T02:29:15.299Z,15.51
2017-05-19T02:29:55.878Z,15.54
2017-05-19T02:30:36.477Z,15.49
2017-05-19T02:31:17.001Z,15.49
2017-05-19T02:31:57.605Z,15.49
2017-05-19T02:32:38.154Z,15.42
2017-05-19T02:33:18.704Z,15.39
2017-05-19T02:33:59.230Z,15.44
2017-05-19T02:34:39.814Z,15.39
2017-05-19T02:35:20.364Z,15.42
2017-05-19T02:36:00.918Z,15.37
2017-05-19T02:36:41.537Z,15.42
2017-05-19T02:37:22.152Z,15.39
2017-05-19T02:38:02.750Z,15.4
2017-05-19T02:38:43.288Z,15.42
2017-05-19T02:39:23.872Z,15.37
2017-05-19T02:40:04.454Z,15.39
2017-05-19T02:40:45.043Z,15.44
2017-05-19T02:41:25.591Z,15.46
2017-05-19T02:42:06.171Z,15.4
2017-05-19T02:42:46.806Z,15.43
2017-05-19T02:43:27.332Z,15.57
2017-05-19T02:44:07.921Z,15.47
2017-05-19T02:44:48.551Z,15.58
2017-05-19T02:45:29.075Z,15.51
2017-05-19T02:46:09.698Z,15.54
2017-05-19T02:46:50.311Z,15.51
2017-05-19T02:47:30.839Z,15.54
2017-05-19T02:48:11.434Z,15.54
2017-05-19T02:48:52.065Z,15.58
2017-05-19T02:49:32.594Z,15.57
2017-05-19T02:50:13.161Z,15.52
2017-05-19T02:50:53.723Z,15.58
2017-05-19T02:51:34.272Z,15.58
2017-05-19T02:52:15.863Z,15.61
2017-05-19T02:52:56.412Z,15.58
2017-05-19T02:53:36.964Z,15.61
2017-05-19T02:54:17.490Z,15.65
2017-05-19T02:54:58.066Z,15.64
2017-05-19T02:55:38.609Z,15.65
2017-05-19T02:56:19.163Z,15.65
2017-05-19T02:56:59.799Z,15.68
2017-05-19T02:57:40.397Z,15.64
2017-05-19T02:58:21.039Z,15.65
2017-05-19T02:59:01.535Z,15.73
2017-05-19T02:59:42.096Z,15.68
2017-05-19T03:00:22.698Z,15.76
2017-05-19T03:01:03.296Z,15.64
2017-05-19T03:01:43.803Z,15.72
2017-05-19T03:02:24.366Z,15.76
2017-05-19T03:03:04.913Z,15.65
2017-05-19T03:03:45.456Z,15.67
2017-05-19T03:04:26.138Z,15.77
2017-05-19T03:05:06.757Z,15.77
2017-05-19T03:05:47.343Z,15.76
2017-05-19T03:06:27.977Z,15.65
2017-05-19T03:07:08.672Z,15.77
2017-05-19T03:07:49.256Z,15.7
2017-05-19T03:08:29.790Z,15.72
2017-05-19T03:09:10.388Z,15.7
2017-05-19T03:09:50.956Z,15.72
2017-05-19T03:10:31.562Z,15.76
2017-05-19T03:11:12.114Z,15.77
2017-05-19T03:11:52.711Z,15.68
2017-05-19T03:12:33.317Z,15.76
2017-05-19T03:13:13.823Z,15.68
2017-05-19T03:13:54.433Z,15.76
2017-05-19T03:14:35.072Z,15.79
2017-05-19T03:15:15.605Z,15.76
2017-05-19T03:15:56.180Z,15.79
2017-05-19T03:16:36.713Z,15.79
2017-05-19T03:17:17.270Z,15.75
2017-05-19T03:17:57.817Z,15.72
2017-05-19T03:18:38.371Z,15.83
2017-05-19T03:19:19.013Z,15.7
2017-05-19T03:19:59.574Z,15.75
2017-05-19T03:20:40.117Z,15.84
2017-05-19T03:21:20.697Z,15.8
2017-05-19T03:22:01.238Z,15.72
2017-05-19T03:22:41.801Z,15.68
2017-05-19T03:23:22.424Z,15.72
2017-05-19T03:24:02.949Z,15.75
2017-05-19T03:24:43.543Z,15.77
2017-05-19T03:25:24.182Z,15.8
2017-05-19T03:26:04.702Z,15.73
2017-05-19T03:26:45.307Z,15.86
2017-05-19T03:27:25.844Z,15.7
2017-05-19T03:28:06.368Z,15.82
2017-05-19T03:28:46.952Z,15.76
2017-05-19T03:29:28.537Z,15.73
2017-05-19T03:30:09.186Z,15.7
2017-05-19T03:30:49.833Z,15.82
2017-05-19T03:31:30.390Z,15.77
2017-05-19T03:32:10.915Z,15.73
2017-05-19T03:32:51.471Z,15.82
2017-05-19T03:33:32.043Z,15.8
2017-05-19T03:34:12.695Z,15.83
2017-05-19T03:34:53.243Z,15.83
2017-05-19T03:35:33.884Z,15.82
2017-05-19T03:36:14.432Z,15.76
2017-05-19T03:36:55.037Z,15.83
2017-05-19T03:37:35.668Z,15.8
2017-05-19T03:38:16.198Z,15.82
2017-05-19T03:38:56.825Z,15.82
2017-05-19T03:39:37.404Z,15.76
2017-05-19T03:40:17.949Z,15.8
2017-05-19T03:40:58.500Z,15.83
2017-05-19T03:41:39.049Z,15.8
2017-05-19T03:42:19.613Z,15.82
2017-05-19T03:43:00.150Z,15.88
2017-05-19T03:43:40.694Z,15.84
2017-05-19T03:44:21.256Z,15.86
2017-05-19T03:45:01.906Z,15.79
2017-05-19T03:45:42.361Z,15.76
2017-05-19T03:46:22.902Z,15.86
2017-05-19T03:47:03.512Z,15.84
2017-05-19T03:47:44.111Z,15.86
2017-05-19T03:48:24.675Z,15.88
2017-05-19T03:49:05.227Z,15.83
2017-05-19T03:49:45.779Z,15.91
2017-05-19T03:50:26.426Z,15.83
2017-05-19T03:51:06.969Z,15.83
2017-05-19T03:51:47.510Z,15.88
2017-05-19T03:52:28.181Z,15.88
2017-05-19T03:53:08.798Z,15.86
2017-05-19T03:53:49.367Z,15.82
2017-05-19T03:54:29.917Z,15.84
2017-05-19T03:55:10.470Z,15.82
2017-05-19T03:55:51.128Z,15.83
2017-05-19T03:56:32.056Z,15.9
2017-05-19T03:57:12.632Z,15.88
2017-05-19T03:57:53.168Z,15.83
2017-05-19T03:58:33.724Z,15.91
2017-05-19T03:59:14.260Z,15.94
2017-05-19T03:59:54.820Z,15.86
2017-05-19T04:00:35.407Z,15.95
2017-05-19T04:01:17.061Z,15.92
2017-05-19T04:01:57.608Z,15.97
2017-05-19T04:02:38.234Z,15.91
2017-05-19T04:03:18.796Z,15.94
2017-05-19T04:03:59.369Z,15.94
2017-05-19T04:04:39.989Z,15.88
2017-05-19T04:05:20.497Z,15.94
2017-05-19T04:06:01.101Z,15.92
2017-05-19T04:06:41.646Z,16.02
2017-05-19T04:07:22.192Z,16
2017-05-19T04:08:02.742Z,15.92
2017-05-19T04:08:43.396Z,16.02
2017-05-19T04:09:23.943Z,16.02
2017-05-19T04:10:04.494Z,16
2017-05-19T04:10:45.049Z,16.02
2017-05-19T04:11:25.599Z,15.98
2017-05-19T04:12:06.119Z,16.09
2017-05-19T04:12:47.752Z,16.09
2017-05-19T04:13:28.363Z,16.05
2017-05-19T04:14:08.927Z,16.02
2017-05-19T04:14:49.433Z,16.09
2017-05-19T04:15:30.054Z,16.1
2017-05-19T04:16:10.639Z,16.09
2017-05-19T04:16:51.230Z,16.1
2017-05-19T04:17:31.783Z,16.1
2017-05-19T04:18:12.359Z,16.15
2017-05-19T04:18:52.896Z,16.16
2017-05-19T04:19:33.483Z,16.17
2017-05-19T04:20:14.100Z,16.13
2017-05-19T04:20:54.653Z,16.15
2017-05-19T04:21:35.196Z,16.15
2017-05-19T04:22:15.798Z,16.2
2017-05-19T04:22:56.388Z,16.16
2017-05-19T04:23:36.899Z,16.16
2017-05-19T04:24:17.510Z,16.2
2017-05-19T04:24:58.101Z,16.13
2017-05-19T04:25:39.737Z,16.16
2017-05-19T04:26:20.248Z,16.2
2017-05-19T04:27:00.842Z,16.26
2017-05-19T04:27:41.431Z,16.23
2017-05-19T04:28:21.981Z,16.29
2017-05-19T04:29:02.636Z,16.35
2017-05-19T04:29:43.187Z,16.41
2017-05-19T04:30:24.843Z,16.41
2017-05-19T04:31:05.311Z,16.46
2017-05-19T04:31:45.853Z,16.39
2017-05-19T04:32:26.453Z,16.46
2017-05-19T04:33:07.005Z,16.39
2017-05-19T04:33:47.616Z,16.47
2017-05-19T04:34:28.167Z,16.46
2017-05-19T04:35:08.759Z,16.49
2017-05-19T04:35:49.305Z,16.5
2017-05-19T04:36:30.894Z,16.6
2017-05-19T04:37:11.580Z,16.65
2017-05-19T04:37:52.039Z,16.65
2017-05-19T04:38:32.593Z,16.65
2017-05-19T04:39:13.147Z,16.65
2017-05-19T04:39:53.697Z,16.71
2017-05-19T04:40:34.347Z,16.78
2017-05-19T04:41:14.902Z,16.79
2017-05-19T04:41:55.449Z,16.97
2017-05-19T04:42:36.051Z,16.89
2017-05-19T04:43:16.547Z,16.99
2017-05-19T04:43:57.169Z,17.01
2017-05-19T04:44:37.836Z,17.02
2017-05-19T04:45:18.351Z,17.05
2017-05-19T04:45:58.881Z,17.09
2017-05-19T04:46:40.503Z,17.19
2017-05-19T04:47:21.077Z,17.24
2017-05-19T04:48:01.612Z,17.27
2017-05-19T04:48:42.138Z,17.38
2017-05-19T04:49:23.800Z,17.45
2017-05-19T04:50:04.371Z,17.51
2017-05-19T04:50:44.888Z,17.52
2017-05-19T04:51:25.471Z,17.49
2017-05-19T04:52:06.024Z,17.48
2017-05-19T04:52:46.545Z,17.6
2017-05-19T04:53:27.138Z,17.52
2017-05-19T04:54:07.738Z,17.6
2017-05-19T04:54:48.236Z,17.52
2017-05-19T04:55:28.812Z,17.51
2017-05-19T04:56:09.388Z,17.57
2017-05-19T04:56:49.890Z,17.44
2017-05-19T04:57:30.438Z,17.52
2017-05-19T04:58:11.042Z,17.54
2017-05-19T04:58:51.702Z,17.46
2017-05-19T04:59:32.258Z,17.41
2017-05-19T05:00:12.846Z,17.45
2017-05-19T05:00:53.421Z,17.41
2017-05-19T05:01:34.011Z,17.34
2017-05-19T05:02:14.523Z,17.33
2017-05-19T05:02:55.160Z,17.3
2017-05-19T05:03:35.728Z,17.26
2017-05-19T05:04:16.419Z,17.24
2017-05-19T05:04:56.946Z,17.15
2017-05-19T05:05:37.537Z,17.12
2017-05-19T05:06:18.134Z,17.16
2017-05-19T05:06:58.788Z,17.19
2017-05-19T05:07:39.380Z,17.09
2017-05-19T05:08:20.904Z,17.06
2017-05-19T05:09:02.509Z,17.05
2017-05-19T05:09:43.137Z,17.06
2017-05-19T05:10:24.718Z,16.97
2017-05-19T05:11:05.321Z,17.02
2017-05-19T05:11:45.933Z,17.02
2017-05-19T05:12:26.884Z,16.97
2017-05-19T05:13:07.466Z,16.97
2017-05-19T05:13:48.073Z,16.94
2017-05-19T05:14:28.660Z,16.9
2017-05-19T05:15:10.224Z,17.02
2017-05-19T05:15:51.834Z,17.02
2017-05-19T05:16:32.433Z,16.84
2017-05-19T05:17:12.966Z,16.93
2017-05-19T05:17:55.617Z,16.94
2017-05-19T05:18:37.313Z,16.94
2017-05-19T05:19:17.908Z,16.83
2017-05-19T05:19:58.425Z,17.01
2017-05-19T05:20:39.035Z,16.96
2017-05-19T05:21:20.662Z,16.87
2017-05-19T05:22:01.236Z,16.99
2017-05-19T05:22:41.892Z,17.02
2017-05-19T05:23:22.439Z,16.97
2017-05-19T05:24:02.996Z,16.89
2017-05-19T05:24:43.536Z,16.84
2017-05-19T05:25:24.093Z,17.02
2017-05-19T05:26:04.640Z,16.99
2017-05-19T06:15:30.858Z,17.76
2017-05-19T06:16:11.450Z,17.76
2017-05-19T06:16:52.045Z,17.72
2017-05-19T06:17:32.642Z,17.72
2017-05-19T06:18:13.179Z,17.8
2017-05-19T06:18:53.730Z,17.79
2017-05-19T06:19:34.282Z,17.8
2017-05-19T06:20:14.934Z,17.82
2017-05-19T06:20:55.488Z,17.79
2017-05-19T06:21:36.139Z,17.83
2017-05-19T06:22:16.728Z,17.82
2017-05-19T06:22:57.329Z,17.86
2017-05-19T06:23:37.966Z,17.89
2017-05-19T06:24:18.553Z,17.9
2017-05-19T06:24:59.116Z,17.89
2017-05-19T06:25:39.774Z,17.86
2017-05-19T06:26:20.355Z,17.87
2017-05-19T06:27:00.957Z,17.98
2017-05-19T06:27:41.504Z,17.98
2017-05-19T06:28:22.060Z,18.01
2017-05-19T06:29:02.710Z,18.07
2017-05-19T06:29:43.261Z,18.07
2017-05-19T06:30:23.912Z,18.05
2017-05-19T06:31:04.463Z,18.03
2017-05-19T06:31:45.011Z,18.07
2017-05-19T06:32:25.560Z,18.18
2017-05-19T06:33:06.197Z,18.16
2017-05-19T06:33:46.659Z,18.11
2017-05-19T06:34:27.211Z,18.18
2017-05-19T06:35:07.766Z,18.11
2017-05-19T06:35:48.317Z,18.2
2017-05-19T06:36:28.868Z,18.13
2017-05-19T06:37:09.420Z,18.22
2017-05-19T06:37:49.969Z,18.1
2017-05-19T06:38:30.535Z,18.23
2017-05-19T06:39:11.072Z,18.26
2017-05-19T06:39:51.622Z,18.15
2017-05-19T06:40:32.255Z,18.18
2017-05-19T06:41:12.840Z,18.13
2017-05-19T06:41:53.365Z,18.11
2017-05-19T06:42:33.902Z,18.22
2017-05-19T06:43:14.465Z,18.2
2017-05-19T06:43:55.080Z,18.19
2017-05-19T06:44:35.672Z,18.25
2017-05-19T06:45:16.216Z,18.23
2017-05-19T06:45:56.779Z,18.23
2017-05-19T06:46:37.821Z,18.15
2017-05-19T06:47:18.374Z,18.26
2017-05-19T06:47:58.909Z,18.26
2017-05-19T06:48:39.508Z,18.28
2017-05-19T06:49:20.094Z,18.26
2017-05-19T06:50:00.697Z,18.25
2017-05-19T06:50:41.233Z,18.23
2017-05-19T06:51:21.811Z,18.26
2017-05-19T06:52:03.377Z,18.31
2017-05-19T06:52:44.114Z,18.29
2017-05-19T06:53:24.633Z,18.25
2017-05-19T06:54:05.273Z,18.28
2017-05-19T06:54:45.899Z,18.22
2017-05-19T06:55:26.526Z,18.33
2017-05-19T06:56:07.081Z,18.34
2017-05-19T06:56:47.651Z,18.33
2017-05-19T06:57:28.200Z,18.28
2017-05-19T06:58:08.728Z,18.28
2017-05-19T06:58:49.348Z,18.33
2017-05-19T06:59:29.942Z,18.28
2017-05-19T07:00:10.465Z,18.29
2017-05-19T07:00:52.079Z,18.28
2017-05-19T07:01:32.614Z,18.28
2017-05-19T07:02:13.188Z,18.23
2017-05-19T07:02:53.676Z,18.18
2017-05-19T07:03:34.217Z,18.04
2017-05-19T07:04:14.869Z,18.03
2017-05-19T07:04:55.456Z,18.05
2017-05-19T07:05:35.981Z,18
2017-05-19T07:06:16.577Z,17.89
2017-05-19T07:06:58.194Z,17.94
2017-05-19T07:07:38.786Z,17.72
2017-05-19T07:08:19.409Z,17.76
2017-05-19T07:09:00.101Z,17.7
2017-05-19T07:09:40.598Z,17.63
2017-05-19T07:10:21.242Z,17.49
2017-05-19T07:11:01.772Z,17.57
2017-05-19T07:11:42.304Z,17.54
2017-05-19T07:12:22.854Z,17.48
2017-05-19T07:13:05.485Z,17.51
2017-05-19T07:13:46.151Z,17.49
2017-05-19T07:14:26.783Z,17.54
2017-05-19T07:15:07.330Z,17.54
2017-05-19T07:15:48.903Z,17.49
2017-05-19T07:16:29.445Z,17.52
2017-05-19T07:17:09.985Z,17.59
2017-05-19T07:17:50.553Z,17.57
2017-05-19T07:18:32.162Z,17.48
2017-05-19T07:19:12.786Z,17.48
2017-05-19T07:19:53.424Z,17.46
2017-05-19T07:20:34.090Z,17.56
2017-05-19T07:21:14.691Z,17.41
2017-05-19T07:21:55.301Z,17.36
2017-05-19T07:22:35.933Z,17.33
2017-05-19T07:23:16.567Z,17.31
2017-05-19T07:23:57.195Z,17.3
2017-05-19T07:24:37.761Z,17.3
2017-05-19T07:25:18.313Z,17.29
2017-05-19T07:25:58.893Z,17.33
2017-05-19T07:26:40.505Z,17.36
2017-05-19T07:27:21.133Z,17.27
2017-05-19T07:28:01.692Z,17.36
2017-05-19T07:28:42.299Z,17.24
2017-05-19T07:29:22.921Z,17.23
2017-05-19T07:30:03.617Z,17.29
2017-05-19T07:30:44.155Z,17.23
2017-05-19T07:31:24.715Z,17.16
2017-05-19T07:32:05.308Z,17.12
2017-05-19T07:32:45.863Z,17.12
2017-05-19T07:33:26.504Z,17.11
2017-05-19T07:34:07.112Z,17.09
2017-05-19T07:34:47.620Z,17.05
2017-05-19T07:35:28.233Z,17.05
2017-05-19T07:36:08.853Z,17.12
2017-05-19T07:36:49.418Z,17.11
2017-05-19T07:37:30.012Z,17.12
2017-05-19T07:38:10.578Z,17.09
2017-05-19T07:38:51.119Z,17.11
2017-05-19T07:39:31.745Z,17.04
2017-05-19T07:40:12.432Z,17.09
2017-05-19T07:40:53.001Z,17.08
2017-05-19T07:41:33.553Z,17.14
2017-05-19T07:42:14.113Z,17.2
2017-05-19T07:42:54.710Z,17.19
2017-05-19T07:43:35.328Z,17.05
2017-05-19T07:44:15.875Z,17.06
2017-05-19T07:44:56.423Z,17.04
2017-05-19T07:45:37.002Z,17.05
2017-05-19T07:46:17.628Z,17.02
2017-05-19T07:46:58.180Z,17.04
2017-05-19T07:47:38.722Z,16.97
2017-05-19T07:48:19.323Z,16.93
2017-05-19T07:49:00.882Z,16.96
2017-05-19T07:49:41.516Z,16.89
2017-05-19T07:50:22.058Z,16.9
2017-05-19T07:51:02.648Z,16.86
2017-05-19T07:51:43.311Z,16.86
2017-05-19T07:52:23.937Z,16.83
2017-05-19T07:53:04.562Z,16.79
2017-05-19T07:53:45.080Z,16.84
2017-05-19T07:54:25.692Z,16.84
2017-05-19T07:55:06.332Z,16.78
2017-05-19T07:55:46.870Z,16.71
2017-05-19T07:56:27.451Z,16.71
2017-05-19T07:57:08.084Z,16.78
2017-05-19T07:57:48.730Z,16.68
2017-05-19T07:58:29.392Z,16.71
2017-05-19T07:59:10.032Z,16.65
2017-05-19T07:59:50.689Z,16.61
2017-05-19T08:00:31.352Z,16.54
2017-05-19T08:01:11.886Z,16.65
2017-05-19T08:01:52.542Z,16.54
2017-05-19T08:02:33.207Z,16.56
2017-05-19T08:03:13.741Z,16.56
2017-05-19T08:03:54.360Z,16.53
2017-05-19T08:04:35.007Z,16.43
2017-05-19T08:05:15.603Z,16.47
2017-05-19T08:05:56.157Z,16.54
2017-05-19T08:06:36.746Z,16.33
2017-05-19T08:07:17.317Z,16.5
2017-05-19T08:07:57.904Z,16.36
2017-05-19T08:08:38.507Z,16.43
2017-05-19T08:09:19.058Z,16.43
2017-05-19T08:09:59.621Z,16.39
2017-05-19T08:10:40.322Z,16.41
2017-05-19T08:11:20.867Z,16.38
2017-05-19T08:12:01.441Z,16.46
2017-05-19T08:12:42.034Z,16.36
2017-05-19T08:13:22.689Z,16.38
2017-05-19T08:14:03.335Z,16.35
2017-05-19T08:14:43.990Z,16.35
2017-05-19T08:15:24.543Z,16.46
2017-05-19T08:16:05.178Z,16.39
2017-05-19T08:16:45.729Z,16.43
2017-05-19T08:17:26.282Z,16.43
2017-05-19T08:18:06.879Z,16.46
2017-05-19T08:18:47.420Z,16.43
2017-05-19T08:19:27.996Z,16.5
2017-05-19T08:20:08.590Z,16.5
2017-05-19T08:20:49.184Z,16.47
2017-05-19T08:21:29.711Z,16.42
2017-05-19T08:22:10.320Z,16.47
2017-05-19T08:22:50.938Z,16.5
2017-05-19T08:23:31.455Z,16.5
2017-05-19T08:24:12.044Z,16.56
2017-05-19T08:24:53.711Z,16.49
2017-05-19T08:25:34.242Z,16.49
2017-05-19T08:26:15.896Z,16.42
2017-05-19T08:26:56.497Z,16.49
2017-05-19T08:27:37.018Z,16.46
2017-05-19T08:28:17.600Z,16.49
2017-05-19T08:28:58.251Z,16.51
2017-05-19T08:29:38.798Z,16.51
2017-05-19T08:30:19.349Z,16.54
2017-05-19T08:31:00.006Z,16.51
2017-05-19T08:31:40.552Z,16.51
2017-05-19T08:32:21.137Z,16.43
2017-05-19T08:33:01.764Z,16.47
2017-05-19T08:33:42.296Z,16.56
2017-05-19T08:34:22.863Z,16.53
2017-05-19T08:35:03.460Z,16.56
2017-05-19T08:35:44.029Z,16.53
2017-05-19T08:36:24.513Z,16.6
2017-05-19T08:37:05.081Z,16.54
2017-05-19T08:37:45.680Z,16.61
2017-05-19T08:38:26.217Z,16.54
2017-05-19T08:39:06.924Z,16.56
2017-05-19T08:39:47.465Z,16.58
2017-05-19T08:40:27.991Z,16.61
2017-05-19T08:41:08.601Z,16.6
2017-05-19T08:41:49.220Z,16.69
2017-05-19T08:42:29.735Z,16.71
2017-05-19T08:43:10.340Z,16.65
2017-05-19T08:43:50.997Z,16.69
2017-05-19T08:44:31.648Z,16.66
2017-05-19T08:45:12.205Z,16.69
2017-05-19T08:45:52.857Z,16.66
2017-05-19T08:46:33.512Z,16.65
2017-05-19T08:47:14.182Z,16.76
2017-05-19T08:47:55.774Z,16.69
2017-05-19T08:48:36.388Z,16.66
2017-05-19T08:49:16.939Z,16.72
2017-05-19T08:49:57.490Z,16.76
2017-05-19T08:50:38.065Z,16.69
2017-05-19T08:51:18.700Z,16.74
2017-05-19T08:51:59.350Z,16.84
2017-05-19T08:52:40.028Z,16.79
2017-05-19T08:53:20.576Z,16.83
2017-05-19T08:54:01.122Z,16.78
2017-05-19T08:54:41.651Z,16.76
2017-05-19T08:55:22.228Z,16.81
2017-05-19T08:56:02.786Z,16.83
2017-05-19T08:56:43.385Z,16.87
2017-05-19T08:57:23.898Z,16.99
2017-05-19T08:58:04.441Z,16.91
2017-05-19T08:58:45.058Z,16.97
2017-05-19T08:59:25.634Z,17.02
2017-05-19T09:00:06.261Z,16.97
2017-05-19T09:00:46.810Z,16.99
2017-05-19T09:01:27.388Z,17.04
2017-05-19T09:02:08.008Z,17.04
2017-05-19T09:02:48.667Z,17.06
2017-05-19T09:03:29.318Z,17.05
2017-05-19T09:04:09.871Z,17.11
2017-05-19T09:04:50.421Z,17.12
2017-05-19T09:05:30.969Z,17.14
2017-05-19T09:06:11.500Z,17.26
2017-05-19T09:06:52.079Z,17.24
2017-05-19T09:07:32.770Z,17.26
2017-05-19T09:08:13.357Z,17.33
2017-05-19T09:08:53.899Z,17.34
2017-05-19T09:09:34.504Z,17.36
2017-05-19T09:10:16.111Z,17.39
2017-05-19T09:10:56.683Z,17.31
2017-05-19T09:11:37.346Z,17.41
2017-05-19T09:12:17.936Z,17.45
2017-05-19T09:12:58.497Z,17.42
2017-05-19T09:13:39.048Z,17.38
2017-05-19T09:14:19.600Z,17.23
2017-05-19T09:15:00.142Z,17.29
2017-05-19T09:15:40.795Z,17.26
2017-05-19T09:16:21.350Z,17.22
2017-05-19T09:17:01.931Z,17.26
2017-05-19T09:17:42.559Z,17.26
2017-05-19T09:18:23.194Z,17.23
2017-05-19T09:19:03.836Z,17.22
2017-05-19T09:19:44.462Z,17.09
2017-05-19T09:20:25.030Z,17.12
2017-05-19T09:21:05.580Z,17.08
2017-05-19T09:21:46.278Z,17.09
2017-05-19T09:22:26.889Z,17.12
2017-05-19T09:23:07.542Z,17.22
2017-05-19T09:23:48.154Z,17.34
2017-05-19T09:24:28.766Z,17.41
2017-05-19T09:25:09.402Z,17.41
2017-05-19T09:25:49.941Z,17.39
2017-05-19T09:26:30.497Z,17.39
2017-05-19T09:27:11.070Z,17.41
2017-05-19T09:27:51.708Z,17.54
2017-05-19T09:28:32.310Z,17.48
2017-05-19T09:29:12.881Z,17.52
2017-05-19T09:29:53.430Z,17.41
2017-05-19T09:30:34.035Z,17.46
2017-05-19T09:31:14.591Z,17.44
2017-05-19T09:31:55.122Z,17.33
2017-05-19T09:32:35.694Z,17.48
2017-05-19T09:33:16.289Z,17.44
2017-05-19T09:33:56.832Z,17.49